createdAt,value
2024-02-19T00:01:16.472Z,7.80
2024-02-19T00:03:43.848Z,7.80
2024-02-19T00:06:10.851Z,7.70
2024-02-19T00:08:37.823Z,7.80
2024-02-19T00:11:04.910Z,7.80
2024-02-19T00:13:31.872Z,7.80
2024-02-19T00:15:58.883Z,7.80
2024-02-19T00:18:26.039Z,7.70
2024-02-19T00:20:53.057Z,7.70
2024-02-19T00:23:20.115Z,7.70
2024-02-19T00:25:47.093Z,7.70
2024-02-19T00:28:14.058Z,7.70
2024-02-19T00:30:41.057Z,7.70
2024-02-19T00:33:08.292Z,7.70
2024-02-19T00:35:35.293Z,7.80
2024-02-19T00:38:02.287Z,7.70
2024-02-19T00:40:29.148Z,7.70
2024-02-19T00:42:56.097Z,7.80
2024-02-19T00:45:23.063Z,7.70
2024-02-19T00:47:49.889Z,7.70
2024-02-19T00:50:16.811Z,7.70
2024-02-19T00:52:43.744Z,7.70
2024-02-19T00:55:10.951Z,7.70
2024-02-19T00:57:38.688Z,7.70
2024-02-19T01:00:09.325Z,7.70
2024-02-19T01:02:37.023Z,7.70
2024-02-19T01:05:04.835Z,7.70
2024-02-19T01:07:31.996Z,7.70
2024-02-19T01:09:59.353Z,7.70
2024-02-19T01:12:26.176Z,7.70
2024-02-19T01:14:53.205Z,7.70
2024-02-19T01:17:20.107Z,7.70
2024-02-19T01:19:47.666Z,7.70
2024-02-19T01:22:14.630Z,7.70
2024-02-19T01:24:42.053Z,7.70
2024-02-19T01:27:09.037Z,7.70
2024-02-19T01:29:36.349Z,7.70
2024-02-19T01:32:03.372Z,7.70
2024-02-19T01:34:31.285Z,7.70
2024-02-19T01:36:58.927Z,7.60
2024-02-19T01:39:26.486Z,7.60
2024-02-19T01:41:53.417Z,7.70
2024-02-19T01:44:20.408Z,7.60
2024-02-19T01:46:47.991Z,7.60
2024-02-19T01:49:15.335Z,7.70
2024-02-19T01:51:42.846Z,7.70
2024-02-19T01:54:12.240Z,7.70
2024-02-19T01:56:41.670Z,7.70
2024-02-19T01:59:10.615Z,7.70
2024-02-19T02:01:43.012Z,7.70
2024-02-19T02:04:10.555Z,7.70
2024-02-19T02:06:38.349Z,7.70
2024-02-19T02:09:07.274Z,7.60
2024-02-19T02:11:34.471Z,7.60
2024-02-19T02:14:01.607Z,7.70
2024-02-19T02:16:32.080Z,7.60
2024-02-19T02:18:59.678Z,7.60
2024-02-19T02:21:26.700Z,7.60
2024-02-19T02:23:53.978Z,7.60
2024-02-19T02:26:20.776Z,7.60
2024-02-19T02:28:47.975Z,7.70
2024-02-19T02:31:15.012Z,7.70
2024-02-19T02:33:42.187Z,7.70
2024-02-19T02:36:11.559Z,7.70
2024-02-19T02:38:38.614Z,7.70
2024-02-19T02:41:05.507Z,7.70
2024-02-19T02:43:32.379Z,7.70
2024-02-19T02:45:59.273Z,7.70
2024-02-19T02:48:26.318Z,7.70
2024-02-19T02:50:53.306Z,7.70
2024-02-19T02:53:22.390Z,7.70
2024-02-19T02:55:49.616Z,7.70
2024-02-19T02:58:16.667Z,7.70
2024-02-19T03:00:43.749Z,7.70
2024-02-19T03:03:11.140Z,7.70
2024-02-19T03:05:40.293Z,7.70
2024-02-19T03:08:08.239Z,7.70
2024-02-19T03:10:35.383Z,7.70
2024-02-19T03:13:02.520Z,7.70
2024-02-19T03:15:29.607Z,7.70
2024-02-19T03:17:56.816Z,7.70
2024-02-19T03:20:24.878Z,7.60
2024-02-19T03:22:51.922Z,7.70
2024-02-19T03:25:20.206Z,7.70
2024-02-19T03:27:47.613Z,7.60
2024-02-19T03:30:14.980Z,7.70
2024-02-19T03:32:43.779Z,7.60
2024-02-19T03:35:10.754Z,7.70
2024-02-19T03:37:37.542Z,7.70
2024-02-19T03:40:07.740Z,7.70
2024-02-19T03:42:34.982Z,7.70
2024-02-19T03:45:02.915Z,7.70
2024-02-19T03:47:29.770Z,7.70
2024-02-19T03:49:56.775Z,7.70
2024-02-19T03:52:23.952Z,7.70
2024-02-19T03:54:50.966Z,7.70
2024-02-19T03:57:17.973Z,7.70
2024-02-19T03:59:44.935Z,7.70
2024-02-19T04:02:12.114Z,7.70
2024-02-19T04:04:39.151Z,7.70
2024-02-19T04:07:06.846Z,7.70
2024-02-19T04:09:36.194Z,7.70
2024-02-19T04:12:07.206Z,7.70
2024-02-19T04:14:34.285Z,7.70
2024-02-19T04:17:02.941Z,7.70
2024-02-19T04:19:30.303Z,7.70
2024-02-19T04:21:57.188Z,7.70
2024-02-19T04:24:24.105Z,7.70
2024-02-19T04:26:50.991Z,7.70
2024-02-19T04:29:17.830Z,7.70
2024-02-19T04:31:44.745Z,7.70
2024-02-19T04:34:11.838Z,7.70
2024-02-19T04:36:39.024Z,7.70
2024-02-19T04:39:05.940Z,7.70
2024-02-19T04:41:33.057Z,7.70
2024-02-19T04:44:00.019Z,7.70
2024-02-19T04:46:26.857Z,7.70
2024-02-19T04:48:53.905Z,7.70
2024-02-19T04:51:20.895Z,7.70
2024-02-19T04:53:47.692Z,7.70
2024-02-19T04:56:16.272Z,7.60
2024-02-19T04:58:43.148Z,7.60
2024-02-19T05:01:10.668Z,7.60
2024-02-19T05:03:37.777Z,7.60
2024-02-19T05:06:04.998Z,7.60
2024-02-19T05:08:31.835Z,7.60
2024-02-19T05:10:58.948Z,7.60
2024-02-19T05:13:25.914Z,7.60
2024-02-19T05:15:53.314Z,7.60
2024-02-19T05:18:20.540Z,7.60
2024-02-19T05:20:48.230Z,7.60
2024-02-19T05:23:15.133Z,7.50
2024-02-19T05:25:41.981Z,7.50
2024-02-19T05:28:09.118Z,7.50
2024-02-19T05:30:37.501Z,7.50
2024-02-19T05:33:05.739Z,7.50
2024-02-19T05:35:32.958Z,7.50
2024-02-19T05:38:00.327Z,7.50
2024-02-19T05:40:27.357Z,7.50
2024-02-19T05:42:54.315Z,7.50
2024-02-19T05:45:21.222Z,7.50
2024-02-19T05:47:49.113Z,7.50
2024-02-19T05:50:16.323Z,7.50
2024-02-19T05:52:43.285Z,7.50
2024-02-19T05:55:11.197Z,7.50
2024-02-19T05:57:38.971Z,7.50
2024-02-19T06:00:07.989Z,7.50
2024-02-19T06:02:35.026Z,7.50
2024-02-19T06:05:04.254Z,7.50
2024-02-19T06:07:32.528Z,7.50
2024-02-19T06:09:59.447Z,7.50
2024-02-19T06:12:26.389Z,7.50
2024-02-19T06:14:53.318Z,7.50
2024-02-19T06:17:20.215Z,7.50
2024-02-19T06:19:47.085Z,7.50
2024-02-19T06:22:15.563Z,7.50
2024-02-19T06:24:43.526Z,7.50
2024-02-19T06:27:10.711Z,7.50
2024-02-19T06:29:37.559Z,7.40
2024-02-19T06:32:04.667Z,7.40
2024-02-19T06:34:32.815Z,7.40
2024-02-19T06:36:59.855Z,7.40
2024-02-19T06:39:26.803Z,7.40
2024-02-19T06:41:53.648Z,7.40
2024-02-19T06:44:20.464Z,7.40
2024-02-19T06:46:47.584Z,7.40
2024-02-19T06:49:14.447Z,7.40
2024-02-19T06:51:41.422Z,7.40
2024-02-19T06:54:08.341Z,7.40
2024-02-19T06:56:35.247Z,7.30
2024-02-19T06:59:02.314Z,7.40
2024-02-19T07:01:29.264Z,7.30
2024-02-19T07:03:56.372Z,7.40
2024-02-19T07:06:23.427Z,7.30
2024-02-19T07:08:50.295Z,7.30
2024-02-19T07:11:17.293Z,7.30
2024-02-19T07:13:44.454Z,7.30
2024-02-19T07:16:11.436Z,7.30
2024-02-19T07:18:38.441Z,7.30
2024-02-19T07:21:05.406Z,7.30
2024-02-19T07:23:32.303Z,7.30
2024-02-19T07:25:59.128Z,7.30
2024-02-19T07:28:25.985Z,7.30
2024-02-19T07:30:52.875Z,7.30
2024-02-19T07:33:20.908Z,7.30
2024-02-19T07:35:48.274Z,7.30
2024-02-19T07:38:15.116Z,7.30
2024-02-19T07:40:42.242Z,7.30
2024-02-19T07:43:09.134Z,7.30
2024-02-19T07:48:28.286Z,7.30
2024-02-19T07:51:04.199Z,7.30
2024-02-19T07:53:43.259Z,7.30
2024-02-19T08:00:09.927Z,7.30
2024-02-19T08:03:58.687Z,7.30
2024-02-19T08:07:01.247Z,7.40
2024-02-19T08:09:59.908Z,7.40
2024-02-19T08:12:57.102Z,7.40
2024-02-19T08:16:02.954Z,7.40
2024-02-19T08:22:49.956Z,7.40
2024-02-19T08:25:40.704Z,7.50
2024-02-19T08:35:36.631Z,7.60
2024-02-19T08:38:07.531Z,7.60
2024-02-19T08:40:37.137Z,7.60
2024-02-19T08:43:14.384Z,7.60
2024-02-19T08:45:41.962Z,7.60
2024-02-19T08:48:20.898Z,7.60
2024-02-19T08:50:53.862Z,7.70
2024-02-19T08:53:28.159Z,7.70
2024-02-19T08:56:00.154Z,7.70
2024-02-19T08:58:43.862Z,7.70
2024-02-19T09:01:19.395Z,7.70
2024-02-19T09:03:48.676Z,7.70
2024-02-19T09:06:23.064Z,7.70
2024-02-19T09:08:56.428Z,7.70
2024-02-19T09:11:27.693Z,7.70
2024-02-19T09:13:55.302Z,7.80
2024-02-19T09:16:23.023Z,7.80
2024-02-19T09:18:56.881Z,7.70
2024-02-19T09:21:33.256Z,7.80
2024-02-19T09:24:03.205Z,7.80
2024-02-19T09:26:30.906Z,7.80
2024-02-19T09:29:04.549Z,7.80
2024-02-19T09:31:38.189Z,7.80
2024-02-19T09:34:09.305Z,7.90
2024-02-19T09:36:36.574Z,7.90
2024-02-19T09:39:11.502Z,7.90
2024-02-19T09:41:44.872Z,7.90
2024-02-19T09:44:14.297Z,7.90
2024-02-19T09:46:45.136Z,7.90
2024-02-19T09:49:16.992Z,8.00
2024-02-19T09:51:51.292Z,8.00
2024-02-19T09:54:18.451Z,8.00
2024-02-19T09:56:47.578Z,8.00
2024-02-19T09:59:30.618Z,8.00
2024-02-19T10:02:12.316Z,8.00
2024-02-19T10:04:46.183Z,8.00
2024-02-19T10:07:48.847Z,8.00
2024-02-19T10:10:31.922Z,8.00
2024-02-19T10:13:12.501Z,8.00
2024-02-19T10:15:44.030Z,8.00
2024-02-19T10:18:20.663Z,8.00
2024-02-19T10:20:56.630Z,8.00
2024-02-19T10:23:47.143Z,8.10
2024-02-19T10:26:45.335Z,8.10
2024-02-19T10:29:33.316Z,8.10
2024-02-19T10:35:48.610Z,8.10
2024-02-19T10:44:53.341Z,8.10
2024-02-19T10:47:29.888Z,8.10
2024-02-19T10:50:10.029Z,8.10
2024-02-19T10:52:57.903Z,8.10
2024-02-19T10:58:57.320Z,8.10
2024-02-19T11:01:57.244Z,8.20
2024-02-19T11:04:41.031Z,8.20
2024-02-19T11:07:45.100Z,8.20
2024-02-19T11:11:15.351Z,8.20
2024-02-19T11:13:42.675Z,8.30
2024-02-19T11:16:46.314Z,8.20
2024-02-19T11:19:15.014Z,8.30
2024-02-19T11:21:42.722Z,8.30
2024-02-19T11:24:14.604Z,8.40
2024-02-19T11:27:07.586Z,8.40
2024-02-19T11:32:24.453Z,8.40
2024-02-19T11:35:04.069Z,8.50
2024-02-19T11:37:34.270Z,8.50
2024-02-19T11:46:47.456Z,8.70
2024-02-19T11:52:26.771Z,8.80
2024-02-19T11:55:10.255Z,8.80
2024-02-19T12:01:13.844Z,8.80
2024-02-19T12:03:46.121Z,8.80
2024-02-19T12:10:07.576Z,8.80
2024-02-19T12:12:43.724Z,8.80
2024-02-19T12:15:41.480Z,8.80
2024-02-19T12:18:08.382Z,8.80
2024-02-19T12:20:35.287Z,8.90
2024-02-19T12:23:02.550Z,8.80
2024-02-19T12:25:29.504Z,8.90
2024-02-19T12:27:56.394Z,8.90
2024-02-19T12:30:24.583Z,8.90
2024-02-19T12:32:52.361Z,8.90
2024-02-19T12:35:21.033Z,8.80
2024-02-19T12:37:48.237Z,8.80
2024-02-19T12:40:15.341Z,8.80
2024-02-19T12:42:42.603Z,8.70
2024-02-19T12:45:10.105Z,8.70
2024-02-19T12:47:37.407Z,8.70
2024-02-19T12:50:05.779Z,8.70
2024-02-19T12:52:33.637Z,8.70
2024-02-19T12:55:00.672Z,8.70
2024-02-19T12:57:27.904Z,8.70
2024-02-19T12:59:55.650Z,8.80
2024-02-19T13:02:22.825Z,8.90
2024-02-19T13:04:53.129Z,9.00
2024-02-19T13:07:20.543Z,9.10
2024-02-19T13:09:47.646Z,9.20
2024-02-19T13:12:15.375Z,9.30
2024-02-19T13:14:42.772Z,9.30
2024-02-19T13:17:14.059Z,9.40
2024-02-19T13:19:43.688Z,9.40
2024-02-19T13:22:11.116Z,9.40
2024-02-19T13:24:38.236Z,9.40
2024-02-19T13:27:05.429Z,9.50
2024-02-19T13:29:32.505Z,9.50
2024-02-19T13:31:59.452Z,9.50
2024-02-19T13:34:26.703Z,9.50
2024-02-19T13:36:55.985Z,9.50
2024-02-19T13:39:23.114Z,9.50
2024-02-19T13:41:50.990Z,9.50
2024-02-19T13:44:18.289Z,9.50
2024-02-19T13:46:46.139Z,9.50
2024-02-19T13:49:13.532Z,9.50
2024-02-19T13:51:40.670Z,9.50
2024-02-19T13:54:08.024Z,9.50
2024-02-19T13:56:35.068Z,9.50
2024-02-19T13:59:04.575Z,9.50
2024-02-19T14:01:33.094Z,9.50
2024-02-19T14:04:01.340Z,9.50
2024-02-19T14:06:28.945Z,9.60
2024-02-19T14:08:56.132Z,9.60
2024-02-19T14:11:23.145Z,9.60
2024-02-19T14:13:57.841Z,9.60
2024-02-19T14:16:29.172Z,9.50
2024-02-19T14:18:56.401Z,9.50
2024-02-19T14:21:23.461Z,9.50
2024-02-19T14:23:51.067Z,9.50
2024-02-19T14:26:18.205Z,9.50
2024-02-19T14:28:45.252Z,9.50
2024-02-19T14:31:12.482Z,9.50
2024-02-19T14:33:39.465Z,9.40
2024-02-19T14:36:06.643Z,9.40
2024-02-19T14:38:33.880Z,9.50
2024-02-19T14:41:00.819Z,9.50
2024-02-19T14:43:27.899Z,9.50
2024-02-19T14:45:54.910Z,9.50
2024-02-19T14:48:21.958Z,9.50
2024-02-19T14:50:49.111Z,9.50
2024-02-19T14:53:16.019Z,9.50
2024-02-19T14:55:42.949Z,9.50
2024-02-19T14:58:10.608Z,9.50
2024-02-19T15:00:37.788Z,9.50
2024-02-19T15:03:10.639Z,9.50
2024-02-19T15:05:38.436Z,9.50
2024-02-19T15:08:06.488Z,9.50
2024-02-19T15:10:33.806Z,9.50
2024-02-19T15:13:00.810Z,9.40
2024-02-19T15:15:27.840Z,9.40
2024-02-19T15:17:54.898Z,9.40
2024-02-19T15:20:22.749Z,9.40
2024-02-19T15:22:51.482Z,9.40
2024-02-19T15:25:18.901Z,9.40
2024-02-19T15:27:46.048Z,9.40
2024-02-19T15:30:14.004Z,9.40
2024-02-19T15:32:41.288Z,9.40
2024-02-19T15:35:08.656Z,9.40
2024-02-19T15:37:35.894Z,9.40
2024-02-19T15:40:03.137Z,9.30
2024-02-19T15:42:30.086Z,9.30
2024-02-19T15:44:58.369Z,9.30
2024-02-19T15:47:26.708Z,9.30
2024-02-19T15:49:58.259Z,9.30
2024-02-19T15:52:25.970Z,9.30
2024-02-19T15:54:53.211Z,9.30
2024-02-19T15:57:21.822Z,9.30
2024-02-19T15:59:48.817Z,9.30
2024-02-19T16:02:15.865Z,9.30
2024-02-19T16:04:43.037Z,9.30
2024-02-19T16:07:10.382Z,9.30
2024-02-19T16:09:37.655Z,9.20
2024-02-19T16:12:07.149Z,9.20
2024-02-19T16:14:38.424Z,9.20
2024-02-19T16:17:06.028Z,9.20
2024-02-19T16:19:33.228Z,9.20
2024-02-19T16:22:00.536Z,9.20
2024-02-19T16:24:34.451Z,9.20
2024-02-19T16:27:02.763Z,9.20
2024-02-19T16:29:30.068Z,9.10
2024-02-19T16:31:57.642Z,9.10
2024-02-19T16:34:24.968Z,9.20
2024-02-19T16:36:51.954Z,9.10
2024-02-19T16:39:19.130Z,9.10
2024-02-19T16:41:45.979Z,9.10
2024-02-19T16:44:12.786Z,9.10
2024-02-19T16:46:39.657Z,9.10
2024-02-19T16:49:06.969Z,9.10
2024-02-19T16:51:33.986Z,9.00
2024-02-19T16:54:01.437Z,9.00
2024-02-19T16:56:28.594Z,9.00
2024-02-19T16:58:56.037Z,9.00
2024-02-19T17:01:24.486Z,9.00
2024-02-19T17:03:51.732Z,8.90
2024-02-19T17:06:18.789Z,8.90
2024-02-19T17:08:46.092Z,8.90
2024-02-19T17:11:13.610Z,8.90
2024-02-19T17:13:40.692Z,8.90
2024-02-19T17:16:09.178Z,8.90
2024-02-19T17:18:36.315Z,8.90
2024-02-19T17:21:05.166Z,8.90
2024-02-19T17:23:32.631Z,9.00
2024-02-19T17:25:59.402Z,9.00
2024-02-19T17:28:26.559Z,9.00
2024-02-19T17:30:54.145Z,9.00
2024-02-19T17:33:21.356Z,9.00
2024-02-19T17:35:48.357Z,9.00
2024-02-19T17:38:15.579Z,9.00
2024-02-19T17:40:43.158Z,8.90
2024-02-19T17:43:10.270Z,8.90
2024-02-19T17:45:37.193Z,8.90
2024-02-19T17:48:04.373Z,8.90
2024-02-19T17:50:31.416Z,8.90
2024-02-19T17:52:58.273Z,8.90
2024-02-19T17:55:25.137Z,8.90
2024-02-19T17:57:52.284Z,8.90
2024-02-19T18:00:19.441Z,8.80
2024-02-19T18:02:46.519Z,8.80
2024-02-19T18:05:13.701Z,8.80
2024-02-19T18:07:40.693Z,8.80
2024-02-19T18:10:09.238Z,8.70
2024-02-19T18:12:36.071Z,8.70
2024-02-19T18:15:05.537Z,8.70
2024-02-19T18:17:32.420Z,8.60
2024-02-19T18:19:59.776Z,8.60
2024-02-19T18:22:27.252Z,8.60
2024-02-19T18:24:54.242Z,8.60
2024-02-19T18:27:22.163Z,8.60
2024-02-19T18:29:49.307Z,8.60
2024-02-19T18:32:18.898Z,8.60
2024-02-19T18:34:48.035Z,8.60
2024-02-19T18:37:15.357Z,8.60
2024-02-19T18:39:42.389Z,8.60
2024-02-19T18:42:15.359Z,8.50
2024-02-19T18:44:42.636Z,8.50
2024-02-19T18:47:09.410Z,8.50
2024-02-19T18:49:37.306Z,8.50
2024-02-19T18:52:05.156Z,8.50
2024-02-19T18:54:32.933Z,8.50
2024-02-19T18:57:05.528Z,8.50
2024-02-19T18:59:33.002Z,8.50
2024-02-19T19:02:04.841Z,8.50
2024-02-19T19:04:32.508Z,8.50
2024-02-19T19:06:59.441Z,8.50
2024-02-19T19:09:26.417Z,8.50
2024-02-19T19:11:53.495Z,8.50
2024-02-19T19:14:20.902Z,8.50
2024-02-19T19:16:47.945Z,8.50
2024-02-19T19:19:15.287Z,8.40
2024-02-19T19:21:44.142Z,8.40
2024-02-19T19:24:11.565Z,8.40
2024-02-19T19:26:38.388Z,8.40
2024-02-19T19:29:05.420Z,8.30
2024-02-19T19:31:33.354Z,8.30
2024-02-19T19:34:01.087Z,8.30
2024-02-19T19:36:28.442Z,8.30
2024-02-19T19:38:55.598Z,8.30
2024-02-19T19:41:22.478Z,8.30
2024-02-19T19:43:53.182Z,8.30
2024-02-19T19:46:20.555Z,8.20
2024-02-19T19:48:47.734Z,8.20
2024-02-19T19:51:15.071Z,8.20
2024-02-19T19:53:42.067Z,8.20
2024-02-19T19:56:13.165Z,8.20
2024-02-19T19:58:40.821Z,8.20
2024-02-19T20:01:11.693Z,8.20
2024-02-19T20:03:39.777Z,8.20
2024-02-19T20:06:07.143Z,8.20
2024-02-19T20:08:34.138Z,8.20
2024-02-19T20:11:01.276Z,8.20
2024-02-19T20:13:28.604Z,8.20
2024-02-19T20:15:56.580Z,8.10
2024-02-19T20:18:25.382Z,8.20
2024-02-19T20:20:52.454Z,8.10
2024-02-19T20:23:19.675Z,8.10
2024-02-19T20:25:47.671Z,8.10
2024-02-19T20:28:14.735Z,8.10
2024-02-19T20:30:41.693Z,8.10
2024-02-19T20:33:08.961Z,8.10
2024-02-19T20:35:36.098Z,8.10
2024-02-19T20:38:02.910Z,8.10
2024-02-19T20:40:30.817Z,8.10
2024-02-19T20:43:00.086Z,8.10
2024-02-19T20:45:28.425Z,8.10
2024-02-19T20:47:55.557Z,8.00
2024-02-19T20:50:22.675Z,8.00
2024-02-19T20:52:49.685Z,8.00
2024-02-19T20:55:16.718Z,8.00
2024-02-19T20:57:45.362Z,8.00
2024-02-19T21:00:12.897Z,8.00
2024-02-19T21:02:42.989Z,8.00
2024-02-19T21:05:12.241Z,8.00
2024-02-19T21:07:39.537Z,8.00
2024-02-19T21:10:07.050Z,8.00
2024-02-19T21:12:33.930Z,8.00
2024-02-19T21:15:00.845Z,8.00
2024-02-19T21:17:29.933Z,7.90
2024-02-19T21:20:01.698Z,8.00
2024-02-19T21:22:29.462Z,7.90
2024-02-19T21:24:58.937Z,7.90
2024-02-19T21:27:26.655Z,7.90
2024-02-19T21:29:54.284Z,7.90
2024-02-19T21:32:21.317Z,7.90
2024-02-19T21:34:49.321Z,7.90
2024-02-19T21:37:16.965Z,7.90
2024-02-19T21:39:44.411Z,7.90
2024-02-19T21:42:20.434Z,7.90
2024-02-19T21:44:49.798Z,7.90
2024-02-19T21:47:16.842Z,7.90
2024-02-19T21:49:43.909Z,7.90
2024-02-19T21:52:10.918Z,7.80
2024-02-19T21:54:38.234Z,7.80
2024-02-19T21:57:08.547Z,7.80
2024-02-19T21:59:35.605Z,7.80
2024-02-19T22:02:02.706Z,7.80
2024-02-19T22:04:29.940Z,7.80
2024-02-19T22:06:57.168Z,7.80
2024-02-19T22:09:24.410Z,7.80
2024-02-19T22:11:52.153Z,7.80
2024-02-19T22:14:19.116Z,7.80
2024-02-19T22:16:46.190Z,7.80
2024-02-19T22:19:13.401Z,7.80
2024-02-19T22:21:40.403Z,7.80
2024-02-19T22:24:07.776Z,7.80
2024-02-19T22:26:34.968Z,7.80
2024-02-19T22:29:02.185Z,7.70
2024-02-19T22:31:29.308Z,7.80
2024-02-19T22:33:56.406Z,7.70
2024-02-19T22:36:23.430Z,7.70
2024-02-19T22:38:50.368Z,7.70
2024-02-19T22:41:17.237Z,7.70
2024-02-19T22:43:44.218Z,7.70
2024-02-19T22:46:11.168Z,7.70
2024-02-19T22:48:39.299Z,7.70
2024-02-19T22:51:06.536Z,7.70
2024-02-19T22:53:33.420Z,7.70
2024-02-19T22:56:00.439Z,7.70
2024-02-19T22:58:32.681Z,7.70
2024-02-19T23:01:02.759Z,7.60
2024-02-19T23:03:30.319Z,7.60
2024-02-19T23:05:57.692Z,7.60
2024-02-19T23:08:24.749Z,7.60
2024-02-19T23:10:53.063Z,7.60
2024-02-19T23:13:20.918Z,7.60
2024-02-19T23:15:48.305Z,7.50
2024-02-19T23:18:15.703Z,7.50
2024-02-19T23:20:42.750Z,7.50
2024-02-19T23:23:09.895Z,7.50
2024-02-19T23:25:36.953Z,7.50
2024-02-19T23:28:04.941Z,7.50
2024-02-19T23:30:32.203Z,7.50
2024-02-19T23:32:59.810Z,7.50
2024-02-19T23:35:29.891Z,7.40
2024-02-19T23:37:57.057Z,7.40
2024-02-19T23:40:24.022Z,7.40
2024-02-19T23:42:51.613Z,7.40
2024-02-19T23:45:19.335Z,7.40
2024-02-19T23:47:49.334Z,7.40
2024-02-19T23:50:16.546Z,7.50
2024-02-19T23:52:44.970Z,7.40
2024-02-19T23:55:13.816Z,7.40
2024-02-19T23:57:41.291Z,7.40
